< < Back
Terminal Aerodrome Forecast


Current Version              Previous Versions:   1  2  3  4  5  6  7  8  9  

Terminal Aerodrome Forecast

967
FTUS42 KCHS 270522
TAFCHS
TAF
KCHS 270522Z 2706/2806 25006KT P6SM FEW250
     FM271700 23010KT P6SM SCT050
     FM280000 21008KT P6SM SKC=

Latest METAR

402
SAUS80 KWBC 271100 CCA
MTRCHS
METAR KCHS 271056Z 26005KT 10SM FEW250 26/23 A3003 RMK AO2 SLP168
T02610228


USA.gov is the U.S. government's official web portal to all federal, state and local government web resources and services.